Terminal Aerodrome Forecast
Issued by NWS Omaha/Valley, NE

Home | Current Version | Previous Version | Text Only | Print | Product List | Glossary On
Versions: 1 2 3 4 5 6 7 8 9 10 11 12 13 14 15 16 17 18 19 20 21 22 23 24 25 26 27 28 29 30 31 32 33 34 35 36 37
782
FTUS43 KOAX 200324 AAA
TAFLNK
TAF AMD
KLNK 200324Z 2003/2024 34013KT P6SM OVC008
     FM200500 35011KT 6SM -FZDZ OVC008
      TEMPO 2006/2009 3SM -FZRAPL OVC006
     FM201500 33014KT P6SM OVC012
     FM201800 33015G25KT P6SM OVC025=

USA.gov is the U.S. government's official web portal to all federal, state and local government web resources and services.